Time;durP1;ratioP1;P1;durP2;ratioP2;P2;SDS_P1;SDS_P2;PMS_P1;PMS_P2;Temp;Humidity;BMP_temperature;BMP_pressure;BME280_temperature;BME280_humidity;BME280_pressure;Samples;Min_cycle;Max_cycle;Signal;HPM_P1;HPM_P2
2022/08/26 00:01:40;;;;;;;33.22;28.35;;;18.50;99.90;;;;;;5076410;28;20562;-59
2022/08/26 00:04:07;;;;;;;41.03;28.67;;;18.50;99.90;;;;;;5076350;28;20021;-58
2022/08/26 00:06:33;;;;;;;37.55;27.73;;;18.50;99.90;;;;;;5076622;28;20029;-58
2022/08/26 00:09:00;;;;;;;37.10;27.35;;;18.50;99.90;;;;;;5076717;28;20060;-58
2022/08/26 00:11:26;;;;;;;35.50;27.80;;;18.50;99.90;;;;;;5075556;28;20041;-58
2022/08/26 00:13:53;;;;;;;35.20;27.67;;;18.50;99.90;;;;;;5076193;28;20032;-58
2022/08/26 00:16:19;;;;;;;33.88;26.17;;;18.40;99.90;;;;;;5076480;28;20044;-58
2022/08/26 00:18:45;;;;;;;45.33;28.45;;;18.40;99.90;;;;;;5076199;28;20134;-58
2022/08/26 00:21:11;;;;;;;36.78;27.65;;;18.40;99.90;;;;;;5076026;28;20016;-58
2022/08/26 00:23:37;;;;;;;40.10;28.52;;;18.40;99.90;;;;;;5076301;28;20386;-58
2022/08/26 00:26:05;;;;;;;34.60;27.75;;;18.40;99.90;;;;;;5076055;28;20031;-58
2022/08/26 00:28:31;;;;;;;39.25;27.58;;;18.40;99.90;;;;;;5076147;28;20028;-58
2022/08/26 00:30:57;;;;;;;37.92;28.45;;;18.40;99.90;;;;;;5075890;28;20063;-58
2022/08/26 00:33:23;;;;;;;41.10;27.95;;;18.40;99.90;;;;;;5076217;28;20457;-58
2022/08/26 00:35:49;;;;;;;38.28;27.00;;;18.30;99.90;;;;;;5076047;28;20029;-58
2022/08/26 00:38:15;;;;;;;36.58;26.67;;;18.30;99.90;;;;;;5075877;28;20444;-58
2022/08/26 00:40:49;;;;;;;34.83;25.55;;;18.30;99.90;;;;;;5075670;28;20040;-58
2022/08/26 00:43:16;;;;;;;38.72;26.58;;;18.30;99.90;;;;;;5075629;28;20115;-58
2022/08/26 00:45:47;;;;;;;32.40;26.35;;;18.30;99.90;;;;;;5076042;28;20084;-58
2022/08/26 00:48:16;;;;;;;45.67;26.38;;;18.30;99.90;;;;;;5075315;28;20347;-58
2022/08/26 00:50:54;;;;;;;29.35;24.67;;;18.30;99.90;;;;;;5075841;28;20386;-58
2022/08/26 00:53:22;;;;;;;33.78;24.75;;;18.30;99.90;;;;;;5075539;28;20052;-58
2022/08/26 00:56:12;;;;;;;32.33;24.95;;;18.40;99.90;;;;;;5075449;28;20044;-58
2022/08/26 00:58:41;;;;;;;31.98;24.95;;;18.30;99.90;;;;;;5075555;28;20021;-58
2022/08/26 01:01:09;;;;;;;35.53;25.50;;;18.30;99.90;;;;;;5075476;28;20025;-58
2022/08/26 01:03:36;;;;;;;38.95;25.80;;;18.30;99.90;;;;;;5057437;28;20035;-58
2022/08/26 01:06:03;;;;;;;32.97;26.27;;;18.30;99.90;;;;;;5075187;28;20032;-58
2022/08/26 01:08:30;;;;;;;37.28;25.92;;;18.30;99.90;;;;;;5075273;28;20485;-58
2022/08/26 01:10:57;;;;;;;38.08;26.98;;;18.30;99.90;;;;;;5075372;28;20056;-58
2022/08/26 01:13:23;;;;;;;39.53;26.50;;;18.30;99.90;;;;;;5075261;28;20036;-58
2022/08/26 01:15:54;;;;;;;32.00;25.00;;;18.30;99.90;;;;;;5075495;28;20021;-58
2022/08/26 01:18:21;;;;;;;34.83;25.38;;;18.30;99.90;;;;;;5074911;28;20384;-58
2022/08/26 01:21:06;;;;;;;36.17;25.02;;;18.30;99.90;;;;;;5075324;28;20052;-58
2022/08/26 01:23:37;;;;;;;34.20;23.90;;;18.20;99.90;;;;;;5075164;28;20039;-58
2022/08/26 01:26:17;;;;;;;32.67;23.70;;;18.20;99.90;;;;;;5074788;28;20104;-58
2022/08/26 01:28:43;;;;;;;32.70;24.83;;;18.20;99.90;;;;;;5074908;28;20024;-58
2022/08/26 01:31:16;;;;;;;38.42;24.90;;;18.10;99.90;;;;;;5074540;28;20028;-58
2022/08/26 01:33:59;;;;;;;40.58;24.58;;;18.10;99.90;;;;;;5074876;28;20028;-58
2022/08/26 01:36:25;;;;;;;35.35;25.00;;;18.10;99.90;;;;;;5074970;28;20059;-58
2022/08/26 01:38:52;;;;;;;39.33;24.58;;;18.10;99.90;;;;;;5074816;28;20044;-58
2022/08/26 01:41:19;;;;;;;43.00;25.23;;;18.10;99.90;;;;;;5074655;28;20393;-58
2022/08/26 01:43:50;;;;;;;32.25;24.50;;;18.00;99.90;;;;;;5074744;28;20040;-58
2022/08/26 01:46:17;;;;;;;40.47;24.65;;;18.00;99.90;;;;;;5074548;28;20079;-58
2022/08/26 01:48:44;;;;;;;36.63;24.67;;;18.10;99.90;;;;;;5074470;28;20051;-58
2022/08/26 01:51:11;;;;;;;30.20;23.77;;;18.10;99.90;;;;;;5074485;28;20086;-58
2022/08/26 01:53:39;;;;;;;36.28;25.25;;;18.10;99.90;;;;;;5074164;28;20029;-58
2022/08/26 01:56:06;;;;;;;32.25;23.35;;;18.20;99.90;;;;;;5074452;28;20051;-58
2022/08/26 01:58:38;;;;;;;34.03;26.08;;;18.10;99.90;;;;;;5074494;28;20524;-58
2022/08/26 02:01:05;;;;;;;38.97;24.33;;;18.00;99.90;;;;;;5074260;28;20035;-58
2022/08/26 02:03:32;;;;;;;32.58;24.95;;;18.00;99.90;;;;;;5074535;28;20029;-58
2022/08/26 02:06:04;;;;;;;37.67;26.50;;;18.00;99.90;;;;;;5074093;28;20086;-58
2022/08/26 02:08:51;;;;;;;33.85;26.13;;;18.00;99.90;;;;;;5074386;28;20040;-58
2022/08/26 02:11:17;;;;;;;38.08;24.13;;;17.90;99.90;;;;;;5074239;28;20029;-58
2022/08/26 02:13:48;;;;;;;38.00;26.10;;;17.90;99.90;;;;;;5074105;28;20510;-58
2022/08/26 02:16:20;;;;;;;36.88;26.25;;;17.90;99.90;;;;;;5074119;28;20028;-58
2022/08/26 02:18:47;;;;;;;34.95;26.05;;;17.90;99.90;;;;;;5073947;28;20115;-58
2022/08/26 02:21:14;;;;;;;43.15;25.92;;;17.90;99.90;;;;;;5073876;28;20035;-58
2022/08/26 02:23:40;;;;;;;35.95;26.33;;;17.90;99.90;;;;;;5074146;28;20460;-58
2022/08/26 02:26:16;;;;;;;36.50;26.63;;;17.80;99.90;;;;;;5073913;28;20020;-58
2022/08/26 02:28:54;;;;;;;38.58;26.83;;;17.80;99.90;;;;;;5073965;28;20039;-58
2022/08/26 02:31:20;;;;;;;34.88;24.35;;;17.80;99.90;;;;;;5073984;28;20029;-58
2022/08/26 02:33:46;;;;;;;35.53;24.17;;;17.90;99.90;;;;;;5073514;28;20037;-58
2022/08/26 02:36:11;;;;;;;39.65;23.30;;;17.80;99.90;;;;;;5073784;28;20021;-58
2022/08/26 02:38:37;;;;;;;34.45;24.65;;;17.70;99.90;;;;;;5073988;28;20543;-58
2022/08/26 02:41:03;;;;;;;32.25;25.15;;;17.70;99.90;;;;;;5073791;28;20382;-58
2022/08/26 02:43:29;;;;;;;34.05;23.98;;;17.70;99.90;;;;;;5074049;28;20039;-58
2022/08/26 02:45:55;;;;;;;34.25;23.20;;;17.80;99.90;;;;;;5055731;28;20040;-58
2022/08/26 02:48:21;;;;;;;31.63;23.70;;;17.80;99.90;;;;;;5073669;28;20036;-59
2022/08/26 02:50:48;;;;;;;31.40;22.70;;;17.80;99.90;;;;;;5073883;28;20111;-58
2022/08/26 02:53:14;;;;;;;36.83;23.85;;;17.70;99.90;;;;;;5073441;28;20508;-58
2022/08/26 02:55:41;;;;;;;34.47;22.65;;;17.70;99.90;;;;;;5055778;28;20029;-58
2022/08/26 02:58:08;;;;;;;27.42;21.77;;;17.70;99.90;;;;;;5073686;28;20021;-58
2022/08/26 03:00:38;;;;;;;31.00;23.17;;;17.80;99.90;;;;;;5074045;28;20051;-58
2022/08/26 03:03:04;;;;;;;31.33;23.70;;;17.80;99.90;;;;;;5073538;28;20024;-58
2022/08/26 03:05:30;;;;;;;36.95;25.00;;;17.80;99.90;;;;;;5073822;28;20390;-58
2022/08/26 03:07:56;;;;;;;33.83;24.45;;;17.90;99.90;;;;;;5073529;28;20040;-58
2022/08/26 03:10:22;;;;;;;34.22;24.25;;;17.90;99.90;;;;;;5073718;28;20020;-58
2022/08/26 03:12:48;;;;;;;31.73;24.88;;;18.00;99.90;;;;;;5073762;28;20051;-58
2022/08/26 03:15:16;;;;;;;33.95;24.13;;;17.90;99.90;;;;;;5073489;28;20032;-58
2022/08/26 03:17:44;;;;;;;33.20;25.30;;;18.00;99.90;;;;;;5073452;28;20446;-58
2022/08/26 03:20:10;;;;;;;34.97;24.45;;;18.00;99.90;;;;;;5073422;28;20048;-58
2022/08/26 03:22:39;;;;;;;31.13;22.80;;;18.00;99.90;;;;;;5073670;28;20024;-58
2022/08/26 03:25:09;;;;;;;38.53;24.25;;;17.90;99.90;;;;;;5073416;28;20031;-58
2022/08/26 03:27:35;;;;;;;31.43;22.97;;;17.90;99.90;;;;;;5073501;28;20032;-58
2022/08/26 03:32:45;;;;;;;29.67;21.50;;;17.90;99.90;;;;;;5073490;28;20146;-58
2022/08/26 03:35:11;;;;;;;31.50;21.70;;;17.90;99.90;;;;;;5073287;28;20036;-58
2022/08/26 03:37:38;;;;;;;35.65;21.40;;;17.90;99.90;;;;;;5073372;28;20031;-58
2022/08/26 03:40:07;;;;;;;35.03;23.27;;;17.80;99.90;;;;;;5073120;28;20024;-58
2022/08/26 03:42:35;;;;;;;25.00;21.42;;;17.70;99.90;;;;;;5073394;28;20052;-58
2022/08/26 03:45:02;;;;;;;26.75;22.00;;;17.70;99.90;;;;;;5073295;28;20543;-58
2022/08/26 03:47:28;;;;;;;29.65;22.17;;;17.60;99.90;;;;;;5077293;28;20389;-58
2022/08/26 03:49:53;;;;;;;28.98;23.52;;;17.60;99.90;;;;;;5076713;28;20044;-58
2022/08/26 03:52:19;;;;;;;31.83;22.10;;;17.60;99.90;;;;;;5076545;28;20047;-58
2022/08/26 03:54:45;;;;;;;32.28;24.15;;;17.60;99.90;;;;;;5076964;28;20028;-58
2022/08/26 03:57:11;;;;;;;34.10;24.35;;;17.60;99.90;;;;;;5076521;28;20377;-58
2022/08/26 03:59:37;;;;;;;41.92;24.92;;;17.70;99.90;;;;;;5076672;28;20108;-58
2022/08/26 04:02:04;;;;;;;40.05;26.35;;;17.70;99.90;;;;;;5076518;28;20033;-58
2022/08/26 04:04:29;;;;;;;34.58;25.38;;;17.70;99.90;;;;;;5076760;28;20107;-58
2022/08/26 04:06:57;;;;;;;37.92;25.20;;;17.70;99.90;;;;;;5076208;28;20056;-58
2022/08/26 04:09:24;;;;;;;36.28;24.70;;;17.70;99.90;;;;;;5076596;28;20482;-58
2022/08/26 04:11:50;;;;;;;34.97;25.67;;;17.60;99.90;;;;;;5076580;28;20487;-58
2022/08/26 04:14:19;;;;;;;39.28;24.92;;;17.60;99.90;;;;;;5076240;28;20028;-58
2022/08/26 04:16:45;;;;;;;36.05;25.27;;;17.60;99.90;;;;;;5076204;28;20059;-58
2022/08/26 04:19:13;;;;;;;38.17;24.20;;;17.60;99.90;;;;;;5076097;28;20103;-58
2022/08/26 04:21:40;;;;;;;31.90;24.33;;;17.60;99.90;;;;;;5076025;28;20033;-58
2022/08/26 04:24:08;;;;;;;30.55;23.52;;;17.60;99.90;;;;;;5076082;28;20071;-58
2022/08/26 04:26:36;;;;;;;32.67;23.85;;;17.50;99.90;;;;;;5076436;28;20027;-58
2022/08/26 04:29:07;;;;;;;43.20;26.52;;;17.60;99.90;;;;;;5075640;28;20036;-58
2022/08/26 04:31:34;;;;;;;37.92;26.70;;;17.60;99.90;;;;;;5076220;28;20103;-58
2022/08/26 04:34:01;;;;;;;36.05;25.65;;;17.60;99.90;;;;;;5075861;28;20391;-58
2022/08/26 04:36:27;;;;;;;39.78;27.00;;;17.70;99.90;;;;;;5075819;28;20161;-58
2022/08/26 04:38:53;;;;;;;37.97;26.80;;;17.70;99.90;;;;;;5076033;28;20055;-58
2022/08/26 04:41:20;;;;;;;42.88;26.92;;;17.80;99.90;;;;;;5041227;28;20432;-58
2022/08/26 04:43:47;;;;;;;45.15;27.90;;;17.80;99.90;;;;;;5075888;28;20116;-58
2022/08/26 04:46:18;;;;;;;56.33;28.70;;;17.80;99.90;;;;;;5075712;28;20043;-58
2022/08/26 04:48:44;;;;;;;44.25;28.80;;;17.90;99.90;;;;;;5075538;28;20075;-58
2022/08/26 04:51:10;;;;;;;45.30;27.27;;;18.00;99.90;;;;;;5075542;28;20116;-58
2022/08/26 04:53:36;;;;;;;40.95;27.95;;;18.00;99.90;;;;;;5075526;28;20493;-58
2022/08/26 04:56:03;;;;;;;48.80;28.90;;;18.10;99.90;;;;;;5074955;28;20028;-58
2022/08/26 04:58:29;;;;;;;44.88;29.75;;;18.10;99.90;;;;;;5075885;28;20017;-58
2022/08/26 05:00:55;;;;;;;42.50;30.23;;;18.20;99.90;;;;;;5075469;28;20075;-58
2022/08/26 05:03:23;;;;;;;43.97;30.27;;;18.20;99.90;;;;;;5075406;28;20407;-58
2022/08/26 05:05:49;;;;;;;45.58;30.50;;;18.20;99.90;;;;;;5075560;28;20028;-58
2022/08/26 05:08:17;;;;;;;43.47;29.15;;;18.30;99.90;;;;;;5075054;28;20025;-58
2022/08/26 05:10:49;;;;;;;44.20;29.80;;;18.40;99.90;;;;;;5075271;28;20035;-58
2022/08/26 05:13:17;;;;;;;53.92;32.97;;;18.40;99.90;;;;;;5073255;28;20029;-58
2022/08/26 05:15:44;;;;;;;58.28;34.53;;;18.40;99.90;;;;;;5065792;28;20464;-58
2022/08/26 05:18:12;;;;;;;60.92;32.08;;;18.50;99.90;;;;;;5074344;28;20063;-58
2022/08/26 05:20:40;;;;;;;57.33;32.83;;;18.50;99.90;;;;;;5065697;28;20075;-58
2022/08/26 05:23:07;;;;;;;59.95;35.67;;;18.50;99.90;;;;;;5055499;28;20131;-58
2022/08/26 05:25:40;;;;;;;63.70;37.45;;;18.50;99.90;;;;;;5054739;28;20036;-58
2022/08/26 05:28:07;;;;;;;63.30;37.13;;;18.60;99.90;;;;;;5068208;28;20024;-58
2022/08/26 05:30:33;;;;;;;62.47;36.70;;;18.60;99.90;;;;;;5068115;28;20028;-58
2022/08/26 05:33:00;;;;;;;67.53;37.03;;;18.80;99.90;;;;;;5071250;28;20463;-58
2022/08/26 05:35:32;;;;;;;62.60;37.67;;;18.90;99.90;;;;;;5075062;28;20421;-58
2022/08/26 05:38:04;;;;;;;57.90;35.45;;;19.00;99.90;;;;;;5070371;28;20053;-58
2022/08/26 05:40:35;;;;;;;50.70;34.67;;;19.00;99.90;;;;;;5069982;28;20036;-58
2022/08/26 05:43:01;;;;;;;55.70;34.10;;;19.20;99.90;;;;;;5074557;28;20073;-58
2022/08/26 05:45:27;;;;;;;50.88;32.28;;;19.30;99.90;;;;;;5074468;28;20036;-58
2022/08/26 05:47:53;;;;;;;55.78;33.78;;;19.50;99.90;;;;;;5071463;28;20332;-58
2022/08/26 05:50:20;;;;;;;52.88;31.33;;;19.60;99.90;;;;;;5065875;28;20323;-58
2022/08/26 05:52:49;;;;;;;53.78;30.58;;;19.60;99.90;;;;;;5064567;28;20025;-58
2022/08/26 05:55:15;;;;;;;58.75;31.05;;;19.60;99.90;;;;;;5058326;28;20394;-58
2022/08/26 05:57:42;;;;;;;42.83;26.92;;;19.80;99.90;;;;;;5060938;28;20029;-58
2022/08/26 06:00:10;;;;;;;36.83;25.90;;;19.80;99.90;;;;;;5064476;28;20436;-58
2022/08/26 06:02:38;;;;;;;52.10;25.98;;;20.00;99.90;;;;;;5071850;28;20032;-58
2022/08/26 06:05:06;;;;;;;40.58;24.85;;;20.10;99.90;;;;;;5040242;28;20063;-58
2022/08/26 06:10:18;;;;;;;47.78;26.88;;;20.50;99.90;;;;;;5072508;28;20116;-58
2022/08/26 06:12:44;;;;;;;48.55;27.10;;;20.50;99.90;;;;;;5064813;28;20020;-58
2022/08/26 06:15:15;;;;;;;44.42;26.65;;;20.60;99.90;;;;;;5062416;28;20047;-58
2022/08/26 06:17:42;;;;;;;51.15;27.75;;;20.90;99.90;;;;;;5072217;28;20031;-58
2022/08/26 06:20:11;;;;;;;44.17;25.08;;;21.10;99.90;;;;;;5072948;28;20063;-58
2022/08/26 06:25:40;;;;;;;49.90;27.73;;;21.10;99.90;;;;;;5084429;28;20060;-58
2022/08/26 06:28:09;;;;;;;44.50;26.90;;;21.30;99.90;;;;;;5088175;28;20553;-58
2022/08/26 06:30:39;;;;;;;55.88;27.20;;;21.70;99.90;;;;;;5089825;28;20024;-58
2022/08/26 06:33:06;;;;;;;55.45;27.75;;;22.00;99.90;;;;;;5063145;28;20138;-58
2022/08/26 06:35:38;;;;;;;43.65;24.70;;;22.20;99.90;;;;;;5073782;28;20112;-58
2022/08/26 06:38:05;;;;;;;38.78;24.13;;;22.40;99.90;;;;;;5074005;28;20032;-58
2022/08/26 06:40:31;;;;;;;44.67;25.10;;;22.50;99.90;;;;;;5068509;28;20053;-58
2022/08/26 06:42:57;;;;;;;40.38;23.30;;;22.70;99.90;;;;;;5064370;28;20035;-58
2022/08/26 06:45:23;;;;;;;45.63;24.58;;;23.00;99.90;;;;;;5074155;28;20036;-58
2022/08/26 06:47:49;;;;;;;40.05;23.60;;;23.30;99.90;;;;;;5074042;28;20021;-58
2022/08/26 06:50:15;;;;;;;37.88;22.67;;;23.50;99.90;;;;;;5072929;28;20041;-58
2022/08/26 06:52:41;;;;;;;48.28;23.67;;;23.90;99.90;;;;;;5073179;28;20027;-58
2022/08/26 06:55:08;;;;;;;45.35;24.38;;;24.10;99.90;;;;;;5073680;28;20032;-58
2022/08/26 06:57:35;;;;;;;41.58;22.88;;;24.10;99.90;;;;;;5076409;28;20020;-58
2022/08/26 07:00:12;;;;;;;43.17;22.52;;;24.40;99.90;;;;;;5072866;28;20032;-58
2022/08/26 07:02:38;;;;;;;37.38;22.50;;;24.60;99.90;;;;;;5066845;28;20028;-58
2022/08/26 07:05:05;;;;;;;51.83;23.17;;;24.30;99.90;;;;;;5069562;28;20035;-59
2022/08/26 07:07:30;;;;;;;46.05;24.55;;;24.60;99.90;;;;;;5064556;28;20462;-59
2022/08/26 07:09:56;;;;;;;40.67;21.90;;;24.70;99.90;;;;;;5070721;28;20029;-58
2022/08/26 07:12:22;;;;;;;48.50;25.42;;;24.80;99.90;;;;;;5077170;28;20031;-58
2022/08/26 07:14:48;;;;;;;45.80;21.25;;;25.10;99.90;;;;;;5067233;28;20024;-58
2022/08/26 07:17:15;;;;;;;50.08;22.50;;;25.00;99.90;;;;;;5072361;28;20108;-58
2022/08/26 07:19:41;;;;;;;46.92;24.08;;;25.30;99.90;;;;;;5075027;28;20090;-59
2022/08/26 07:22:07;;;;;;;44.97;22.67;;;25.60;99.90;;;;;;5071952;28;20409;-58
2022/08/26 07:24:37;;;;;;;46.65;23.05;;;25.50;99.90;;;;;;5061299;28;20470;-59
2022/08/26 07:27:06;;;;;;;45.70;23.20;;;25.60;99.90;;;;;;5064450;28;20028;-59
2022/08/26 07:29:33;;;;;;;51.00;24.45;;;25.80;99.90;;;;;;5061760;28;20281;-59
2022/08/26 07:31:59;;;;;;;36.97;21.60;;;25.70;99.90;;;;;;5066407;28;20510;-58
2022/08/26 07:34:26;;;;;;;38.00;21.23;;;26.00;99.90;;;;;;5069891;28;20029;-59
2022/08/26 07:36:52;;;;;;;40.00;21.88;;;26.00;99.90;;;;;;5084568;28;20024;-59
2022/08/26 07:39:18;;;;;;;38.67;20.55;;;26.00;99.90;;;;;;5064270;28;20043;-59
2022/08/26 07:41:46;;;;;;;37.47;20.75;;;26.20;99.90;;;;;;5079088;28;20038;-59
2022/08/26 07:44:13;;;;;;;41.80;21.50;;;26.30;99.90;;;;;;5078195;28;20040;-59
2022/08/26 07:46:40;;;;;;;39.08;19.85;;;26.40;99.90;;;;;;5080713;28;20040;-59
2022/08/26 07:49:06;;;;;;;38.13;21.35;;;26.80;99.20;;;;;;5074332;28;20040;-59
2022/08/26 07:51:32;;;;;;;42.38;21.95;;;27.10;98.20;;;;;;5095476;28;20047;-59
2022/08/26 07:53:58;;;;;;;32.30;20.63;;;27.20;98.50;;;;;;5095975;28;20020;-59
2022/08/26 07:56:25;;;;;;;38.20;20.63;;;27.50;95.40;;;;;;5066535;28;20554;-59
2022/08/26 07:58:52;;;;;;;36.90;21.45;;;27.40;96.50;;;;;;5073593;28;20025;-59
2022/08/26 08:01:23;;;;;;;35.72;23.00;;;28.00;97.60;;;;;;5075511;28;20038;-59
2022/08/26 08:03:50;;;;;;;34.38;21.33;;;28.20;92.50;;;;;;5075983;28;20495;-59
2022/08/26 08:06:21;;;;;;;32.38;20.80;;;27.80;94.60;;;;;;5086942;28;20044;-59
2022/08/26 08:08:46;;;;;;;43.05;22.67;;;28.40;93.10;;;;;;5092351;28;20027;-59
2022/08/26 08:11:13;;;;;;;34.05;20.60;;;28.20;91.60;;;;;;5092316;28;20466;-59
2022/08/26 08:13:41;;;;;;;38.20;21.70;;;27.80;94.40;;;;;;5088644;28;20085;-59
2022/08/26 08:16:08;;;;;;;40.65;23.35;;;28.60;93.00;;;;;;5088240;28;20021;-59
2022/08/26 08:18:34;;;;;;;37.45;21.23;;;29.10;91.10;;;;;;5093676;28;20074;-59
2022/08/26 08:21:02;;;;;;;38.80;21.95;;;29.20;91.20;;;;;;5095094;28;20092;-59
2022/08/26 08:23:30;;;;;;;45.20;22.17;;;28.80;91.30;;;;;;5091185;28;20088;-59
2022/08/26 08:26:01;;;;;;;35.08;21.30;;;29.30;90.90;;;;;;5074907;28;20027;-59
2022/08/26 08:28:27;;;;;;;34.08;21.67;;;29.70;86.30;;;;;;5075384;28;20033;-59
2022/08/26 08:30:53;;;;;;;38.63;21.67;;;30.00;83.20;;;;;;5074816;28;20267;-59
2022/08/26 08:33:20;;;;;;;33.72;20.77;;;30.10;86.80;;;;;;5074403;28;20079;-59
2022/08/26 08:35:47;;;;;;;41.50;23.42;;;30.30;79.30;;;;;;5074761;28;20492;-59
2022/08/26 08:38:13;;;;;;;41.38;23.05;;;30.30;84.00;;;;;;5072193;28;20067;-59
2022/08/26 08:40:41;;;;;;;39.30;22.65;;;30.40;81.50;;;;;;5075363;28;20522;-59
2022/08/26 08:43:37;;;;;;;38.83;23.40;;;30.40;82.40;;;;;;5089097;28;20386;-59
2022/08/26 08:46:15;;;;;;;44.47;25.55;;;30.70;80.00;;;;;;5095955;28;20040;-59
2022/08/26 08:48:45;;;;;;;40.15;22.80;;;31.00;76.60;;;;;;5095638;28;20152;-60
2022/08/26 08:51:25;;;;;;;46.10;25.60;;;31.30;72.40;;;;;;5096171;28;20481;-59
2022/08/26 08:53:53;;;;;;;34.97;21.30;;;31.20;71.90;;;;;;5096035;28;20345;-59
2022/08/26 08:56:29;;;;;;;35.85;19.52;;;31.20;71.60;;;;;;5094857;28;20027;-60
2022/08/26 08:59:02;;;;;;;29.85;20.20;;;31.40;76.40;;;;;;5095754;28;20028;-60
2022/08/26 09:01:46;;;;;;;30.00;18.98;;;31.40;66.60;;;;;;5085378;28;20036;-60
2022/08/26 09:04:37;;;;;;;26.90;17.42;;;31.40;66.60;;;;;;5075320;28;20470;-59
2022/08/26 09:07:09;;;;;;;33.40;19.33;;;31.80;65.90;;;;;;5074250;28;20032;-60
2022/08/26 09:09:37;;;;;;;28.70;17.45;;;32.10;68.10;;;;;;5075695;28;20111;-59
2022/08/26 09:12:10;;;;;;;37.42;18.52;;;32.20;64.10;;;;;;5075153;28;20306;-60
2022/08/26 09:14:36;;;;;;;31.00;19.42;;;32.20;65.30;;;;;;5075310;28;20083;-60
2022/08/26 09:17:05;;;;;;;28.42;17.60;;;32.20;66.80;;;;;;5075109;28;20021;-60
2022/08/26 09:19:42;;;;;;;26.58;18.10;;;32.50;64.20;;;;;;5075415;28;20024;-60
2022/08/26 09:22:08;;;;;;;33.00;18.02;;;33.00;63.70;;;;;;5073693;28;20500;-60
2022/08/26 09:24:38;;;;;;;23.75;16.45;;;33.00;61.30;;;;;;5094896;28;20032;-60
2022/08/26 09:27:05;;;;;;;28.67;15.60;;;33.00;60.10;;;;;;5074764;28;20025;-60
2022/08/26 09:29:42;;;;;;;30.52;17.58;;;33.20;59.60;;;;;;5074062;28;20036;-60
2022/08/26 09:32:15;;;;;;;33.28;17.80;;;33.40;62.40;;;;;;5074739;28;20544;-60
2022/08/26 09:34:55;;;;;;;24.13;14.05;;;33.70;61.80;;;;;;5066756;28;20036;-60
2022/08/26 09:37:40;;;;;;;26.95;15.77;;;33.10;58.10;;;;;;5093830;28;20470;-60
2022/08/26 09:40:18;;;;;;;26.90;15.82;;;33.50;58.00;;;;;;5092196;28;20024;-60
2022/08/26 09:42:45;;;;;;;21.30;13.52;;;33.60;57.30;;;;;;5082090;28;20036;-60
2022/08/26 09:45:11;;;;;;;28.98;14.30;;;33.80;58.10;;;;;;5078633;28;20494;-60
2022/08/26 09:47:52;;;;;;;23.88;13.57;;;34.00;56.70;;;;;;5065097;28;20489;-60
2022/08/26 09:50:30;;;;;;;29.55;14.55;;;33.80;56.60;;;;;;5069187;28;20397;-60
2022/08/26 09:53:11;;;;;;;25.65;14.18;;;33.80;57.60;;;;;;5074086;28;20504;-60
2022/08/26 09:55:40;;;;;;;24.90;13.05;;;33.30;57.00;;;;;;5074513;28;20028;-60
2022/08/26 09:58:12;;;;;;;24.02;13.95;;;33.70;58.40;;;;;;5074769;28;20024;-60
2022/08/26 10:00:54;;;;;;;37.75;14.95;;;33.70;56.00;;;;;;5056365;28;20530;-60
2022/08/26 10:03:31;;;;;;;26.20;14.88;;;34.00;55.80;;;;;;5072918;28;20107;-60
2022/08/26 10:06:18;;;;;;;27.33;14.68;;;34.60;56.00;;;;;;5066998;28;20048;-60
2022/08/26 10:08:48;;;;;;;30.40;14.40;;;34.80;54.80;;;;;;5045522;28;20031;-60
2022/08/26 10:11:18;;;;;;;24.05;14.10;;;34.80;52.80;;;;;;5065468;28;20377;-60
2022/08/26 10:13:49;;;;;;;39.58;18.05;;;34.60;53.60;;;;;;5074161;28;20025;-60
2022/08/26 10:16:24;;;;;;;26.38;14.85;;;34.00;54.80;;;;;;5074325;28;20108;-60
2022/08/26 10:19:06;;;;;;;31.17;14.85;;;34.20;53.50;;;;;;5074297;28;20025;-60
2022/08/26 10:21:41;;;;;;;22.63;15.27;;;34.40;54.40;;;;;;5067178;28;20031;-60
2022/08/26 10:24:10;;;;;;;24.30;15.23;;;34.70;53.90;;;;;;5074123;28;20386;-60
2022/08/26 10:26:53;;;;;;;25.98;15.35;;;34.80;55.10;;;;;;5074183;28;20035;-60
2022/08/26 10:29:32;;;;;;;29.55;14.23;;;35.00;52.60;;;;;;5053934;28;20060;-61
2022/08/26 10:32:03;;;;;;;31.50;13.20;;;35.40;52.70;;;;;;5067704;28;20512;-60
2022/08/26 10:34:31;;;;;;;29.67;13.70;;;35.60;52.00;;;;;;5067643;28;20035;-60
2022/08/26 10:37:11;;;;;;;29.65;13.98;;;35.90;51.50;;;;;;5072628;28;20032;-60
2022/08/26 10:40:07;;;;;;;27.25;15.40;;;35.80;49.30;;;;;;5060126;28;20025;-60
2022/08/26 10:42:52;;;;;;;30.23;15.70;;;35.30;49.60;;;;;;5073612;28;20028;-60
2022/08/26 10:45:24;;;;;;;27.13;14.23;;;35.10;50.20;;;;;;5062082;28;20025;-60
2022/08/26 10:48:01;;;;;;;33.78;14.30;;;35.50;50.10;;;;;;5049854;28;20443;-61
2022/08/26 10:50:39;;;;;;;20.02;11.80;;;35.10;51.50;;;;;;5061590;28;20090;-60
2022/08/26 10:53:13;;;;;;;29.40;13.35;;;35.30;51.00;;;;;;5074053;28;20020;-60
2022/08/26 10:55:53;;;;;;;23.75;12.98;;;35.40;51.00;;;;;;5076647;28;20512;-60
2022/08/26 10:58:36;;;;;;;26.90;12.23;;;35.20;51.10;;;;;;5077687;28;20076;-60
2022/08/26 11:01:42;;;;;;;32.35;12.77;;;35.20;51.20;;;;;;5071798;28;20537;-60
2022/08/26 11:04:29;;;;;;;28.10;12.32;;;34.70;50.60;;;;;;5076454;28;20056;-60
2022/08/26 11:07:32;;;;;;;20.25;11.40;;;34.70;51.70;;;;;;5077646;28;20055;-60
2022/08/26 11:10:07;;;;;;;27.38;12.77;;;35.00;50.80;;;;;;5066658;28;20036;-60
2022/08/26 11:12:33;;;;;;;20.20;11.32;;;35.10;51.50;;;;;;5068496;28;20028;-60
2022/08/26 11:15:00;;;;;;;27.92;12.68;;;35.30;52.40;;;;;;5077612;28;20032;-60
2022/08/26 11:17:44;;;;;;;31.25;13.25;;;35.50;50.20;;;;;;5076711;28;20063;-61
2022/08/26 11:20:33;;;;;;;31.08;12.57;;;35.50;50.70;;;;;;5068531;28;20036;-60
2022/08/26 11:23:11;;;;;;;19.83;11.77;;;35.60;50.50;;;;;;5066581;28;20501;-60
2022/08/26 11:25:55;;;;;;;22.95;12.27;;;35.70;49.20;;;;;;5077667;28;20084;-60
2022/08/26 11:28:34;;;;;;;26.80;12.55;;;36.00;48.90;;;;;;5071558;28;20029;-60
2022/08/26 11:31:01;;;;;;;25.95;12.35;;;36.00;47.80;;;;;;5061101;28;20130;-60
2022/08/26 11:33:47;;;;;;;19.35;11.30;;;35.90;47.30;;;;;;5071857;28;20110;-60
2022/08/26 11:36:46;;;;;;;20.58;11.60;;;35.80;47.20;;;;;;5057149;28;20033;-61
2022/08/26 11:39:32;;;;;;;17.33;10.07;;;35.90;45.40;;;;;;5040435;28;20474;-60
2022/08/26 11:42:20;;;;;;;25.85;12.40;;;36.00;45.20;;;;;;5068611;28;20078;-60
2022/08/26 11:44:47;;;;;;;21.20;12.38;;;36.00;45.30;;;;;;5064183;28;20051;-61
2022/08/26 11:47:16;;;;;;;28.23;15.18;;;35.80;48.20;;;;;;5074337;28;20059;-61
2022/08/26 11:49:42;;;;;;;25.70;12.98;;;35.80;46.50;;;;;;5065963;28;20052;-60
2022/08/26 11:52:20;;;;;;;22.05;12.10;;;35.80;47.90;;;;;;5077316;28;20092;-60
2022/08/26 11:54:59;;;;;;;24.73;12.50;;;36.00;45.60;;;;;;5075763;28;20371;-61
2022/08/26 11:57:31;;;;;;;28.05;15.07;;;36.40;45.40;;;;;;5063706;28;20488;-61
2022/08/26 12:00:00;;;;;;;18.42;12.18;;;36.50;45.80;;;;;;5060015;28;20025;-61
2022/08/26 12:02:27;;;;;;;22.95;11.55;;;36.40;47.10;;;;;;5066196;28;20123;-60
2022/08/26 12:04:54;;;;;;;22.10;10.68;;;36.60;47.30;;;;;;5076125;28;20383;-61
2022/08/26 12:07:25;;;;;;;16.02;9.48;;;35.60;47.60;;;;;;5067906;28;20120;-61
2022/08/26 12:09:55;;;;;;;20.75;10.60;;;35.60;48.50;;;;;;5067594;28;20064;-61
2022/08/26 12:12:23;;;;;;;;;;;35.50;48.90;;;;;;5056706;28;20478;-61
2022/08/26 12:15:04;;;;;;;29.38;11.30;;;35.60;48.00;;;;;;5071058;28;20254;-61
2022/08/26 12:17:30;;;;;;;27.40;12.32;;;35.50;48.20;;;;;;5074169;28;20086;-61
2022/08/26 12:19:57;;;;;;;23.30;11.35;;;35.90;47.10;;;;;;5076449;28;20032;-60
2022/08/26 12:22:28;;;;;;;31.67;11.45;;;35.40;46.40;;;;;;5076474;28;20031;-61
2022/08/26 12:25:00;;;;;;;23.92;11.45;;;34.80;47.70;;;;;;5076036;28;20039;-61
2022/08/26 12:27:35;;;;;;;21.20;11.25;;;34.70;49.00;;;;;;5090835;28;20567;-60
2022/08/26 12:30:18;;;;;;;22.10;9.85;;;34.20;50.90;;;;;;5076516;28;20021;-60
2022/08/26 12:32:51;;;;;;;24.55;11.23;;;34.20;46.80;;;;;;5056145;28;20544;-60
2022/08/26 12:35:19;;;;;;;20.08;11.55;;;34.40;47.10;;;;;;5056233;28;20025;-60
2022/08/26 12:37:50;;;;;;;24.85;12.10;;;34.80;47.30;;;;;;5072780;28;20028;-60
2022/08/26 12:40:29;;;;;;;17.15;11.85;;;34.80;49.40;;;;;;5076169;28;20474;-60
2022/08/26 12:42:59;;;;;;;26.77;12.30;;;34.40;46.20;;;;;;5076109;28;20067;-60
2022/08/26 12:45:41;;;;;;;17.98;10.18;;;34.30;49.10;;;;;;5068274;28;20028;-61
2022/08/26 12:48:10;;;;;;;19.75;10.38;;;35.00;49.10;;;;;;5079759;28;20064;-60
2022/08/26 12:50:45;;;;;;;29.90;11.10;;;35.20;46.20;;;;;;5079893;28;20089;-60
2022/08/26 12:53:19;;;;;;;27.67;12.80;;;35.40;47.70;;;;;;5088672;28;20184;-60